Terminal Aerodrome Forecast
Issued by NWS

Home | Current Version | Previous Version | Text Only | Print | Product List | Glossary On
Versions: 1 2 3 4 5 6 7 8 9 10 11 12 13 14 15
000
FTUS41 KCAR 251128
TAFBHB
TAF
KBHB 251128Z 2512/2612 22008KT P6SM BKN200
     FM251600 22010G18KT P6SM BKN100
     FM260000 22008KT P6SM VCSH BKN050
     FM260200 22008KT P6SM VCSH OVC015
     FM260600 23006KT 3SM BR VCSH OVC004
     FM260800 23006KT 1SM BR VCSH OVC002=

USA.gov is the U.S. government's official web portal to all federal, state and local government web resources and services.